createdAt,value
2022-11-01T00:02:13.714Z,100.00
2022-11-01T00:04:40.707Z,100.00
2022-11-01T00:07:07.637Z,100.00
2022-11-01T00:09:34.765Z,100.00
2022-11-01T00:12:02.193Z,100.00
2022-11-01T00:14:29.159Z,100.00
2022-11-01T00:16:56.164Z,100.00
2022-11-01T00:19:23.243Z,100.00
2022-11-01T00:21:50.467Z,100.00
2022-11-01T00:24:17.430Z,100.00
2022-11-01T00:26:44.617Z,100.00
2022-11-01T00:29:12.479Z,100.00
2022-11-01T00:31:39.645Z,100.00
2022-11-01T00:34:06.961Z,100.00
2022-11-01T00:36:34.898Z,100.00
2022-11-01T00:39:02.714Z,100.00
2022-11-01T00:41:29.754Z,100.00
2022-11-01T00:43:56.662Z,100.00
2022-11-01T00:46:23.778Z,100.00
2022-11-01T00:48:50.752Z,100.00
2022-11-01T00:51:17.849Z,100.00
2022-11-01T00:53:44.798Z,100.00
2022-11-01T00:56:11.920Z,100.00
2022-11-01T00:58:38.793Z,100.00
2022-11-01T01:01:06.231Z,100.00
2022-11-01T01:03:33.251Z,100.00
2022-11-01T01:06:00.228Z,100.00
2022-11-01T01:08:27.483Z,100.00
2022-11-01T01:10:54.575Z,100.00
2022-11-01T01:13:22.144Z,100.00
2022-11-01T01:15:49.370Z,100.00
2022-11-01T01:18:16.896Z,100.00
2022-11-01T01:20:44.587Z,100.00
2022-11-01T01:23:11.558Z,100.00
2022-11-01T01:25:42.630Z,100.00
2022-11-01T01:28:10.235Z,100.00
2022-11-01T01:30:41.241Z,100.00
2022-11-01T01:33:09.848Z,100.00
2022-11-01T01:35:39.257Z,100.00
2022-11-01T01:38:07.575Z,100.00
2022-11-01T01:40:35.572Z,100.00
2022-11-01T01:43:02.881Z,100.00
2022-11-01T01:45:34.573Z,100.00
2022-11-01T01:48:16.598Z,100.00
2022-11-01T01:50:55.696Z,100.00
2022-11-01T01:53:37.281Z,100.00
2022-11-01T01:56:11.978Z,100.00
2022-11-01T01:58:52.405Z,100.00
2022-11-01T02:01:19.592Z,100.00
2022-11-01T02:03:47.825Z,100.00
2022-11-01T02:06:21.052Z,100.00
2022-11-01T02:08:58.132Z,100.00
2022-11-01T02:11:25.290Z,100.00
2022-11-01T02:13:52.659Z,100.00
2022-11-01T02:16:52.906Z,100.00
2022-11-01T02:19:59.715Z,100.00
2022-11-01T02:23:03.179Z,100.00
2022-11-01T02:26:01.237Z,100.00
2022-11-01T02:29:05.938Z,100.00
2022-11-01T02:31:55.190Z,100.00
2022-11-01T02:34:39.780Z,100.00
2022-11-01T02:37:25.302Z,100.00
2022-11-01T02:40:00.882Z,100.00
2022-11-01T02:42:43.350Z,100.00
2022-11-01T02:45:30.059Z,100.00
2022-11-01T02:48:01.484Z,100.00
2022-11-01T02:50:44.662Z,100.00
2022-11-01T02:53:13.006Z,100.00
2022-11-01T02:55:40.153Z,100.00
2022-11-01T02:58:16.802Z,100.00
2022-11-01T03:00:45.798Z,100.00
2022-11-01T03:03:33.706Z,100.00
2022-11-01T03:06:00.606Z,100.00
2022-11-01T03:08:40.456Z,100.00
2022-11-01T03:11:22.172Z,100.00
2022-11-01T03:13:57.891Z,100.00
2022-11-01T03:16:51.168Z,100.00
2022-11-01T03:19:50.995Z,100.00
2022-11-01T03:22:48.895Z,100.00
2022-11-01T03:25:40.182Z,100.00
2022-11-01T03:28:28.739Z,100.00
2022-11-01T03:31:12.972Z,100.00
2022-11-01T03:33:48.904Z,100.00
2022-11-01T03:36:20.153Z,100.00
2022-11-01T03:38:59.700Z,100.00
2022-11-01T03:41:29.154Z,100.00
2022-11-01T03:43:56.535Z,100.00
2022-11-01T03:46:23.772Z,100.00
2022-11-01T03:48:50.849Z,100.00
2022-11-01T03:51:18.205Z,100.00
2022-11-01T03:53:45.090Z,100.00
2022-11-01T03:56:12.465Z,100.00
2022-11-01T03:58:42.119Z,100.00
2022-11-01T04:01:12.417Z,100.00
2022-11-01T04:03:39.831Z,100.00
2022-11-01T04:06:07.514Z,100.00
2022-11-01T04:08:36.810Z,100.00
2022-11-01T04:11:04.947Z,100.00
2022-11-01T04:13:32.035Z,100.00
2022-11-01T04:16:18.105Z,100.00
2022-11-01T04:19:14.197Z,100.00
2022-11-01T04:21:41.781Z,100.00
2022-11-01T04:24:09.793Z,100.00
2022-11-01T04:26:37.281Z,100.00
2022-11-01T04:29:04.297Z,100.00
2022-11-01T04:31:36.743Z,100.00
2022-11-01T04:34:05.648Z,100.00
2022-11-01T04:36:32.850Z,100.00
2022-11-01T04:38:59.994Z,100.00
2022-11-01T04:41:29.144Z,100.00
2022-11-01T04:43:58.986Z,100.00
2022-11-01T04:46:29.423Z,100.00
2022-11-01T04:48:56.552Z,100.00
2022-11-01T04:51:23.455Z,100.00
2022-11-01T04:53:50.374Z,100.00
2022-11-01T04:56:17.336Z,100.00
2022-11-01T04:58:46.418Z,100.00
2022-11-01T05:01:15.049Z,100.00
2022-11-01T05:03:43.013Z,100.00
2022-11-01T05:06:10.236Z,100.00
2022-11-01T05:08:37.490Z,100.00
2022-11-01T05:11:04.613Z,100.00
2022-11-01T05:13:32.080Z,100.00
2022-11-01T05:18:49.467Z,100.00
2022-11-01T05:21:17.880Z,100.00
2022-11-01T05:23:47.486Z,100.00
2022-11-01T05:26:14.518Z,100.00
2022-11-01T05:28:41.687Z,100.00
2022-11-01T05:31:08.594Z,100.00
2022-11-01T05:33:35.533Z,100.00
2022-11-01T05:36:02.499Z,100.00
2022-11-01T05:38:29.511Z,100.00
2022-11-01T05:40:56.475Z,100.00
2022-11-01T05:43:23.853Z,100.00
2022-11-01T05:45:51.320Z,100.00
2022-11-01T05:48:18.415Z,100.00
2022-11-01T05:50:46.840Z,100.00
2022-11-01T05:53:14.079Z,100.00
2022-11-01T05:55:41.392Z,100.00
2022-11-01T05:58:09.277Z,100.00
2022-11-01T06:00:36.340Z,100.00
2022-11-01T06:03:04.771Z,100.00
2022-11-01T06:05:32.434Z,100.00
2022-11-01T06:08:02.067Z,100.00
2022-11-01T06:10:28.993Z,100.00
2022-11-01T06:12:56.301Z,100.00
2022-11-01T06:15:23.785Z,100.00
2022-11-01T06:17:58.487Z,100.00
2022-11-01T06:20:27.583Z,100.00
2022-11-01T06:22:54.479Z,100.00
2022-11-01T06:25:22.344Z,100.00
2022-11-01T06:27:49.519Z,100.00
2022-11-01T06:30:16.561Z,100.00
2022-11-01T06:32:43.705Z,100.00
2022-11-01T06:35:11.824Z,100.00
2022-11-01T06:37:41.742Z,100.00
2022-11-01T06:40:09.660Z,100.00
2022-11-01T06:42:36.653Z,100.00
2022-11-01T06:45:03.961Z,100.00
2022-11-01T06:47:31.153Z,100.00
2022-11-01T06:49:58.124Z,100.00
2022-11-01T06:52:25.133Z,100.00
2022-11-01T06:54:52.137Z,100.00
2022-11-01T06:57:19.158Z,100.00
2022-11-01T06:59:46.566Z,100.00
2022-11-01T07:02:14.704Z,100.00
2022-11-01T07:04:42.044Z,100.00
2022-11-01T07:07:08.958Z,100.00
2022-11-01T07:09:36.142Z,100.00
2022-11-01T07:12:03.032Z,100.00
2022-11-01T07:14:31.124Z,100.00
2022-11-01T07:16:58.254Z,100.00
2022-11-01T07:19:25.362Z,100.00
2022-11-01T07:21:52.746Z,100.00
2022-11-01T07:24:19.971Z,100.00
2022-11-01T07:26:47.707Z,100.00
2022-11-01T07:29:14.865Z,100.00
2022-11-01T07:31:42.036Z,100.00
2022-11-01T07:34:09.129Z,100.00
2022-11-01T07:36:36.066Z,100.00
2022-11-01T07:39:03.850Z,100.00
2022-11-01T07:41:31.014Z,100.00
2022-11-01T07:43:58.149Z,100.00
2022-11-01T07:46:25.065Z,100.00
2022-11-01T07:48:52.243Z,100.00
2022-11-01T07:51:19.265Z,100.00
2022-11-01T07:53:46.566Z,100.00
2022-11-01T07:56:13.651Z,100.00
2022-11-01T07:58:43.517Z,100.00
2022-11-01T08:01:11.363Z,100.00
2022-11-01T08:03:38.606Z,100.00
2022-11-01T08:06:05.946Z,100.00
2022-11-01T08:08:33.064Z,100.00
2022-11-01T08:11:01.517Z,100.00
2022-11-01T08:13:29.652Z,100.00
2022-11-01T08:15:57.027Z,100.00
2022-11-01T08:18:24.529Z,100.00
2022-11-01T08:20:52.062Z,100.00
2022-11-01T08:23:19.362Z,100.00
2022-11-01T08:25:46.345Z,100.00
2022-11-01T08:28:19.386Z,100.00
2022-11-01T08:30:50.996Z,100.00
2022-11-01T08:33:18.238Z,100.00
2022-11-01T08:35:50.054Z,100.00
2022-11-01T08:38:17.969Z,100.00
2022-11-01T08:40:44.934Z,100.00
2022-11-01T08:43:11.897Z,100.00
2022-11-01T08:45:39.124Z,100.00
2022-11-01T08:48:06.649Z,100.00
2022-11-01T08:50:34.671Z,100.00
2022-11-01T08:53:13.745Z,100.00
2022-11-01T08:55:41.838Z,100.00
2022-11-01T08:58:09.717Z,100.00
2022-11-01T09:00:37.217Z,98.71
2022-11-01T09:03:04.378Z,98.12
2022-11-01T09:05:31.672Z,95.83
2022-11-01T09:08:02.455Z,95.02
2022-11-01T09:10:30.971Z,94.63
2022-11-01T09:13:02.377Z,93.46
2022-11-01T09:15:30.407Z,91.67
2022-11-01T09:17:57.410Z,89.03
2022-11-01T09:20:24.397Z,87.19
2022-11-01T09:22:55.061Z,85.27
2022-11-01T09:25:22.112Z,80.97
2022-11-01T09:27:48.997Z,75.79
2022-11-01T09:30:16.010Z,69.71
2022-11-01T09:32:42.873Z,69.69
2022-11-01T09:35:10.142Z,69.88
2022-11-01T09:37:37.200Z,69.93
2022-11-01T09:40:06.508Z,67.84
2022-11-01T09:42:43.801Z,66.10
2022-11-01T09:45:23.753Z,63.34
2022-11-01T09:47:54.864Z,63.69
2022-11-01T09:50:27.858Z,63.59
2022-11-01T09:52:56.796Z,62.87
2022-11-01T09:55:46.149Z,63.45
2022-11-01T09:58:42.084Z,62.78
2022-11-01T10:02:15.352Z,62.19
2022-11-01T10:05:03.910Z,61.74
2022-11-01T10:07:49.143Z,61.85
2022-11-01T10:10:52.766Z,60.58
2022-11-01T10:14:09.796Z,59.63
2022-11-01T10:16:43.176Z,61.24
2022-11-01T10:19:18.949Z,60.53
2022-11-01T10:21:51.208Z,61.07
2022-11-01T10:24:40.243Z,60.16
2022-11-01T10:27:52.332Z,58.17
2022-11-01T10:30:20.185Z,59.36
2022-11-01T10:33:40.233Z,59.01
2022-11-01T10:36:27.215Z,58.45
2022-11-01T10:42:23.019Z,57.95
2022-11-01T10:44:55.370Z,58.44
2022-11-01T10:47:25.085Z,57.88
2022-11-01T10:50:11.225Z,58.38
2022-11-01T10:53:01.823Z,58.69
2022-11-01T10:55:52.548Z,59.18
2022-11-01T10:58:47.297Z,58.72
2022-11-01T11:01:27.588Z,58.28
2022-11-01T11:04:01.137Z,58.41
2022-11-01T11:06:28.361Z,58.59
2022-11-01T11:08:56.694Z,58.29
2022-11-01T11:11:45.511Z,58.29
2022-11-01T11:14:14.353Z,58.01
2022-11-01T11:16:50.871Z,58.06
2022-11-01T11:19:38.799Z,58.44
2022-11-01T11:22:08.689Z,58.58
2022-11-01T11:24:44.280Z,58.85
2022-11-01T11:27:21.939Z,58.40
2022-11-01T11:30:22.717Z,58.67
2022-11-01T11:32:50.450Z,58.94
2022-11-01T11:35:21.017Z,58.94
2022-11-01T11:37:57.684Z,59.02
2022-11-01T11:40:27.848Z,58.86
2022-11-01T11:43:19.003Z,57.68
2022-11-01T11:46:24.616Z,58.05
2022-11-01T11:48:53.053Z,57.51
2022-11-01T11:51:21.654Z,56.90
2022-11-01T11:54:06.851Z,56.95
2022-11-01T11:56:34.007Z,56.66
2022-11-01T11:59:25.935Z,55.95
2022-11-01T12:02:00.611Z,57.32
2022-11-01T12:04:42.381Z,57.24
2022-11-01T12:07:24.939Z,56.99
2022-11-01T12:09:51.990Z,56.92
2022-11-01T12:12:54.343Z,57.34
2022-11-01T12:15:35.784Z,56.25
2022-11-01T12:18:16.103Z,56.07
2022-11-01T12:20:50.143Z,56.59
2022-11-01T12:23:36.103Z,56.37
2022-11-01T12:26:13.965Z,56.59
2022-11-01T12:28:53.361Z,56.97
2022-11-01T12:31:21.973Z,57.01
2022-11-01T12:34:06.405Z,56.38
2022-11-01T12:37:04.657Z,55.89
2022-11-01T12:39:44.000Z,56.00
2022-11-01T12:42:20.845Z,55.93
2022-11-01T12:44:51.813Z,55.65
2022-11-01T12:47:27.941Z,55.15
2022-11-01T12:50:07.531Z,55.62
2022-11-01T12:52:42.368Z,56.01
2022-11-01T12:55:14.250Z,55.64
2022-11-01T12:57:44.659Z,56.10
2022-11-01T13:00:17.507Z,56.12
2022-11-01T13:03:12.525Z,57.10
2022-11-01T13:06:29.300Z,56.98
2022-11-01T13:09:13.058Z,56.90
2022-11-01T13:11:54.916Z,57.01
2022-11-01T13:14:33.159Z,57.49
2022-11-01T13:17:27.983Z,56.64
2022-11-01T13:20:24.848Z,56.66
2022-11-01T13:23:21.860Z,56.68
2022-11-01T13:25:57.523Z,56.67
2022-11-01T13:31:45.103Z,56.26
2022-11-01T13:34:28.941Z,55.65
2022-11-01T13:37:22.110Z,56.58
2022-11-01T13:40:32.426Z,57.20
2022-11-01T13:43:14.587Z,57.73
2022-11-01T13:46:18.511Z,57.48
2022-11-01T13:49:09.733Z,57.58
2022-11-01T13:51:48.362Z,58.22
2022-11-01T13:54:27.326Z,58.51
2022-11-01T13:57:13.065Z,58.95
2022-11-01T13:59:44.349Z,58.86
2022-11-01T14:02:25.959Z,59.50
2022-11-01T14:05:10.960Z,59.53
2022-11-01T14:07:44.135Z,59.39
2022-11-01T14:10:31.156Z,58.84
2022-11-01T14:13:10.865Z,58.85
2022-11-01T14:16:00.416Z,58.95
2022-11-01T14:18:27.620Z,58.29
2022-11-01T14:20:56.301Z,58.54
2022-11-01T14:23:29.130Z,58.54
2022-11-01T14:26:21.122Z,59.18
2022-11-01T14:28:51.311Z,58.88
2022-11-01T14:31:26.036Z,59.04
2022-11-01T14:33:59.051Z,59.39
2022-11-01T14:36:32.306Z,59.72
2022-11-01T14:39:12.990Z,59.55
2022-11-01T14:41:41.090Z,60.14
2022-11-01T14:44:49.626Z,60.49
2022-11-01T14:47:40.864Z,60.68
2022-11-01T14:50:54.030Z,61.24
2022-11-01T14:53:28.290Z,61.56
2022-11-01T14:56:07.057Z,61.85
2022-11-01T14:58:34.267Z,61.95
2022-11-01T15:01:10.604Z,62.81
2022-11-01T15:03:37.750Z,63.52
2022-11-01T15:06:23.011Z,63.95
2022-11-01T15:08:50.120Z,63.84
2022-11-01T15:11:17.665Z,64.51
2022-11-01T15:13:46.088Z,65.03
2022-11-01T15:16:24.014Z,64.93
2022-11-01T15:19:03.466Z,64.78
2022-11-01T15:21:34.166Z,65.57
2022-11-01T15:24:03.045Z,65.69
2022-11-01T15:26:33.476Z,66.38
2022-11-01T15:29:04.601Z,66.34
2022-11-01T15:31:34.534Z,66.44
2022-11-01T15:34:20.879Z,66.68
2022-11-01T15:36:48.079Z,66.91
2022-11-01T15:39:28.950Z,67.25
2022-11-01T15:41:57.436Z,67.43
2022-11-01T15:44:28.030Z,67.35
2022-11-01T15:46:59.844Z,67.58
2022-11-01T15:49:41.769Z,67.96
2022-11-01T15:52:18.949Z,67.98
2022-11-01T15:54:53.974Z,68.51
2022-11-01T15:57:36.981Z,68.43
2022-11-01T16:00:18.018Z,68.05
2022-11-01T16:02:45.390Z,68.95
2022-11-01T16:05:19.117Z,68.80
2022-11-01T16:07:47.117Z,68.91
2022-11-01T16:10:27.611Z,69.22
2022-11-01T16:12:56.216Z,69.34
2022-11-01T16:15:34.327Z,69.41
2022-11-01T16:18:15.308Z,69.47
2022-11-01T16:20:43.070Z,69.82
2022-11-01T16:23:25.042Z,70.33
2022-11-01T16:26:10.126Z,70.65
2022-11-01T16:28:44.089Z,71.12
2022-11-01T16:31:25.876Z,71.20
2022-11-01T16:33:54.208Z,71.20
2022-11-01T16:36:21.004Z,71.58
2022-11-01T16:38:53.270Z,71.73
2022-11-01T16:41:26.880Z,71.74
2022-11-01T16:44:00.501Z,71.70
2022-11-01T16:46:30.007Z,71.82
2022-11-01T16:49:05.500Z,71.67
2022-11-01T16:51:33.440Z,71.91
2022-11-01T16:54:01.306Z,72.09
2022-11-01T16:56:36.703Z,72.60
2022-11-01T16:59:35.462Z,72.47
2022-11-01T17:02:18.758Z,72.15
2022-11-01T17:04:50.708Z,72.59
2022-11-01T17:07:18.258Z,72.60
2022-11-01T17:09:45.380Z,73.19
2022-11-01T17:12:12.485Z,72.75
2022-11-01T17:17:15.745Z,72.99
2022-11-01T17:19:49.324Z,73.13
2022-11-01T17:22:24.272Z,73.21
2022-11-01T17:24:51.269Z,73.20
2022-11-01T17:27:19.012Z,73.37
2022-11-01T17:29:46.224Z,73.34
2022-11-01T17:32:13.165Z,73.67
2022-11-01T17:34:40.248Z,73.90
2022-11-01T17:37:07.750Z,74.86
2022-11-01T17:39:36.142Z,75.37
2022-11-01T17:42:03.036Z,75.54
2022-11-01T17:44:29.994Z,76.12
2022-11-01T17:46:56.926Z,76.33
2022-11-01T17:49:24.472Z,76.35
2022-11-01T17:51:54.695Z,76.98
2022-11-01T17:54:23.283Z,77.33
2022-11-01T17:56:51.151Z,77.43
2022-11-01T17:59:18.703Z,77.70
2022-11-01T18:01:45.716Z,77.93
2022-11-01T18:04:12.822Z,78.01
2022-11-01T18:06:43.855Z,78.33
2022-11-01T18:09:24.089Z,78.59
2022-11-01T18:12:09.972Z,78.21
2022-11-01T18:15:05.754Z,78.35
2022-11-01T18:17:55.927Z,78.13
2022-11-01T18:20:48.891Z,78.45
2022-11-01T18:23:20.190Z,78.56
2022-11-01T18:25:49.059Z,78.37
2022-11-01T18:28:19.719Z,78.28
2022-11-01T18:31:25.071Z,78.58
2022-11-01T18:34:28.589Z,79.34
2022-11-01T18:37:12.488Z,81.74
2022-11-01T18:39:54.169Z,82.39
2022-11-01T18:42:21.472Z,78.51
2022-11-01T18:44:48.680Z,79.08
2022-11-01T18:47:26.380Z,75.84
2022-11-01T18:49:53.554Z,74.08
2022-11-01T18:52:20.857Z,73.64
2022-11-01T18:54:56.752Z,73.28
2022-11-01T18:57:24.704Z,72.62
2022-11-01T18:59:54.478Z,72.62
2022-11-01T19:02:27.953Z,72.47
2022-11-01T19:05:14.133Z,72.18
2022-11-01T19:08:09.177Z,71.23
2022-11-01T19:10:28.692Z,70.90
2022-11-01T19:12:56.214Z,70.58
2022-11-01T19:15:31.011Z,70.64
2022-11-01T19:18:05.562Z,70.67
2022-11-01T19:20:40.344Z,70.92
2022-11-01T19:23:24.684Z,70.81
2022-11-01T19:25:51.758Z,70.94
2022-11-01T19:28:38.323Z,70.94
2022-11-01T19:31:18.645Z,70.91
2022-11-01T19:33:48.278Z,71.13
2022-11-01T19:36:19.856Z,71.72
2022-11-01T19:38:48.456Z,71.37
2022-11-01T19:41:29.389Z,71.55
2022-11-01T19:44:11.972Z,71.79
2022-11-01T19:46:39.099Z,71.78
2022-11-01T19:49:32.525Z,72.41
2022-11-01T19:52:08.433Z,72.18
2022-11-01T19:54:41.622Z,72.55
2022-11-01T19:57:30.070Z,73.01
2022-11-01T20:00:15.822Z,73.12
2022-11-01T20:02:44.374Z,73.75
2022-11-01T20:05:29.106Z,73.76
2022-11-01T20:08:15.956Z,73.74
2022-11-01T20:10:42.927Z,73.78
2022-11-01T20:13:09.900Z,73.77
2022-11-01T20:15:37.084Z,74.09
2022-11-01T20:18:04.279Z,74.40
2022-11-01T20:20:32.563Z,74.26
2022-11-01T20:23:20.220Z,74.50
2022-11-01T20:25:46.545Z,74.61
2022-11-01T20:28:13.696Z,75.17
2022-11-01T20:30:40.711Z,74.77
2022-11-01T20:33:08.077Z,75.61
2022-11-01T20:35:35.395Z,75.37
2022-11-01T20:38:02.375Z,75.76
2022-11-01T20:40:29.345Z,75.27
2022-11-01T20:42:56.872Z,75.51
2022-11-01T20:45:23.994Z,75.48
2022-11-01T20:47:53.528Z,76.34
2022-11-01T20:50:20.616Z,75.78
2022-11-01T20:52:49.238Z,75.98
2022-11-01T20:55:16.599Z,75.89
2022-11-01T20:57:43.847Z,76.13
2022-11-01T21:00:13.772Z,76.42
2022-11-01T21:02:40.937Z,76.30
2022-11-01T21:05:28.519Z,76.55
2022-11-01T21:08:22.749Z,76.48
2022-11-01T21:11:00.963Z,76.45
2022-11-01T21:13:36.502Z,76.46
2022-11-01T21:16:08.649Z,76.56
2022-11-01T21:18:39.054Z,76.75
2022-11-01T21:21:14.963Z,76.97
2022-11-01T21:23:46.136Z,76.83
2022-11-01T21:26:20.217Z,77.18
2022-11-01T21:28:54.158Z,77.31
2022-11-01T21:31:27.570Z,77.46
2022-11-01T21:34:16.272Z,77.64
2022-11-01T21:36:49.630Z,78.01
2022-11-01T21:39:29.322Z,77.52
2022-11-01T21:42:03.921Z,77.69
2022-11-01T21:44:45.367Z,77.81
2022-11-01T21:47:19.541Z,78.07
2022-11-01T21:49:46.539Z,78.49
2022-11-01T21:52:13.855Z,78.14
2022-11-01T21:54:42.748Z,78.37
2022-11-01T21:57:11.680Z,78.81
2022-11-01T21:59:40.058Z,79.10
2022-11-01T22:02:11.051Z,78.94
2022-11-01T22:04:38.244Z,79.22
2022-11-01T22:07:07.890Z,78.89
2022-11-01T22:09:36.005Z,79.61
2022-11-01T22:12:03.557Z,79.91
2022-11-01T22:14:30.539Z,79.51
2022-11-01T22:16:57.541Z,80.00
2022-11-01T22:19:24.676Z,79.63
2022-11-01T22:21:51.753Z,80.41
2022-11-01T22:24:19.058Z,80.14
2022-11-01T22:26:46.067Z,80.23
2022-11-01T22:29:13.092Z,80.29
2022-11-01T22:31:40.224Z,80.51
2022-11-01T22:34:07.190Z,80.58
2022-11-01T22:36:40.171Z,80.64
2022-11-01T22:39:17.544Z,81.04
2022-11-01T22:41:45.075Z,81.52
2022-11-01T22:44:15.150Z,81.77
2022-11-01T22:46:57.951Z,81.65
2022-11-01T22:49:34.480Z,82.51
2022-11-01T22:52:26.953Z,82.41
2022-11-01T22:55:15.507Z,82.79
2022-11-01T22:57:54.840Z,83.10
2022-11-01T23:00:36.048Z,83.33
2022-11-01T23:03:24.891Z,83.71
2022-11-01T23:05:58.973Z,83.92
2022-11-01T23:08:33.427Z,83.88
2022-11-01T23:11:01.651Z,84.04
2022-11-01T23:13:53.467Z,84.49
2022-11-01T23:16:28.815Z,84.18
2022-11-01T23:19:01.288Z,84.49
2022-11-01T23:21:28.535Z,84.98
2022-11-01T23:23:55.927Z,84.88
2022-11-01T23:26:23.925Z,84.71
2022-11-01T23:28:54.284Z,85.07
2022-11-01T23:31:23.451Z,85.54
2022-11-01T23:33:51.075Z,85.61
2022-11-01T23:36:27.932Z,85.81
2022-11-01T23:39:02.499Z,85.40
2022-11-01T23:41:44.535Z,85.47
2022-11-01T23:44:22.208Z,85.56
2022-11-01T23:46:49.131Z,85.43
2022-11-01T23:49:27.602Z,85.80
2022-11-01T23:51:55.928Z,85.77
2022-11-01T23:54:37.070Z,85.89
2022-11-01T23:57:04.193Z,85.46
2022-11-01T23:59:31.330Z,85.47
